Time;durP1;ratioP1;P1;durP2;ratioP2;P2;SDS_P1;SDS_P2;PMS_P1;PMS_P2;Temp;Humidity;BMP_temperature;BMP_pressure;BME280_temperature;BME280_humidity;BME280_pressure;Samples;Min_cycle;Max_cycle;Signal;HPM_P1;HPM_P2
2023/05/13 00:00:07;;;;;;;4.1;3.7;;;;;;;;;;;;;
2023/05/13 00:02:32;;;;;;;4.8;4.1;;;;;;;;;;;;;
2023/05/13 00:04:57;;;;;;;4.5;3.9;;;;;;;;;;;;;
2023/05/13 00:07:25;;;;;;;5;4.1;;;;;;;;;;;;;
2023/05/13 00:09:50;;;;;;;4.7;3.9;;;;;;;;;;;;;
2023/05/13 00:12:16;;;;;;;4.8;4.1;;;;;;;;;;;;;
2023/05/13 00:14:42;;;;;;;5.2;4.1;;;;;;;;;;;;;
2023/05/13 00:17:08;;;;;;;5.3;4.5;;;;;;;;;;;;;
2023/05/13 00:19:33;;;;;;;4.6;4;;;;;;;;;;;;;
2023/05/13 00:21:58;;;;;;;5.5;4.5;;;;;;;;;;;;;
2023/05/13 00:24:23;;;;;;;5.1;4.2;;;;;;;;;;;;;
2023/05/13 00:26:49;;;;;;;5.1;4.6;;;;;;;;;;;;;
2023/05/13 00:29:14;;;;;;;6;4.9;;;;;;;;;;;;;
2023/05/13 00:31:39;;;;;;;4.7;4.2;;;;;;;;;;;;;
2023/05/13 00:34:05;;;;;;;4.6;4.1;;;;;;;;;;;;;
2023/05/13 00:36:30;;;;;;;7.2;4.4;;;;;;;;;;;;;
2023/05/13 00:38:55;;;;;;;4.8;4.1;;;;;;;;;;;;;
2023/05/13 00:41:20;;;;;;;4.6;4.1;;;;;;;;;;;;;
2023/05/13 00:43:46;;;;;;;4.6;4;;;;;;;;;;;;;
2023/05/13 00:46:11;;;;;;;4.8;4.3;;;;;;;;;;;;;
2023/05/13 00:48:36;;;;;;;5.9;4.6;;;;;;;;;;;;;
2023/05/13 00:51:02;;;;;;;5.9;5.1;;;;;;;;;;;;;
2023/05/13 00:53:27;;;;;;;4.8;4.3;;;;;;;;;;;;;
2023/05/13 00:55:52;;;;;;;5.8;5;;;;;;;;;;;;;
2023/05/13 00:58:17;;;;;;;5.7;4.7;;;;;;;;;;;;;
2023/05/13 01:00:44;;;;;;;5.6;4.6;;;;;;;;;;;;;
2023/05/13 01:03:09;;;;;;;5.9;4.7;;;;;;;;;;;;;
2023/05/13 01:05:34;;;;;;;4.9;4.4;;;;;;;;;;;;;
2023/05/13 01:07:59;;;;;;;5.7;5;;;;;;;;;;;;;
2023/05/13 01:10:26;;;;;;;5.2;4.7;;;;;;;;;;;;;
2023/05/13 01:12:52;;;;;;;5.8;4.9;;;;;;;;;;;;;
2023/05/13 01:15:18;;;;;;;6.4;5.1;;;;;;;;;;;;;
2023/05/13 01:17:43;;;;;;;5.6;5;;;;;;;;;;;;;
2023/05/13 01:20:09;;;;;;;5.6;5;;;;;;;;;;;;;
2023/05/13 01:22:34;;;;;;;5.7;5.1;;;;;;;;;;;;;
2023/05/13 01:24:59;;;;;;;6.1;5.4;;;;;;;;;;;;;
2023/05/13 01:27:24;;;;;;;6.1;5.2;;;;;;;;;;;;;
2023/05/13 01:29:50;;;;;;;6.8;5.3;;;;;;;;;;;;;
2023/05/13 01:32:15;;;;;;;6;5.2;;;;;;;;;;;;;
2023/05/13 01:34:40;;;;;;;6.3;5.4;;;;;;;;;;;;;
2023/05/13 01:37:06;;;;;;;6.1;5.3;;;;;;;;;;;;;
2023/05/13 01:39:31;;;;;;;7.2;6;;;;;;;;;;;;;
2023/05/13 01:41:56;;;;;;;7;5.9;;;;;;;;;;;;;
2023/05/13 01:44:21;;;;;;;6.7;5.8;;;;;;;;;;;;;
2023/05/13 01:46:49;;;;;;;6.8;6;;;;;;;;;;;;;
2023/05/13 01:49:14;;;;;;;6.7;5.9;;;;;;;;;;;;;
2023/05/13 01:51:40;;;;;;;7.1;6.2;;;;;;;;;;;;;
2023/05/13 01:54:04;;;;;;;7.4;6;;;;;;;;;;;;;
2023/05/13 01:56:32;;;;;;;8.2;6.4;;;;;;;;;;;;;
2023/05/13 01:58:57;;;;;;;7;6.3;;;;;;;;;;;;;
2023/05/13 02:01:23;;;;;;;7.8;6.6;;;;;;;;;;;;;
2023/05/13 02:03:48;;;;;;;8.7;6.9;;;;;;;;;;;;;
2023/05/13 02:06:15;;;;;;;8.3;6.5;;;;;;;;;;;;;
2023/05/13 02:08:40;;;;;;;8.4;6.3;;;;;;;;;;;;;
2023/05/13 02:11:05;;;;;;;8.7;6.6;;;;;;;;;;;;;
2023/05/13 02:13:30;;;;;;;9.1;7.1;;;;;;;;;;;;;
2023/05/13 02:15:55;;;;;;;9.1;7.2;;;;;;;;;;;;;
2023/05/13 02:18:20;;;;;;;7.6;6.4;;;;;;;;;;;;;
2023/05/13 02:20:46;;;;;;;8.4;6.7;;;;;;;;;;;;;
2023/05/13 02:23:11;;;;;;;8.5;6.7;;;;;;;;;;;;;
2023/05/13 02:25:36;;;;;;;9.1;7;;;;;;;;;;;;;
2023/05/13 02:28:01;;;;;;;8.1;6.8;;;;;;;;;;;;;
2023/05/13 02:30:27;;;;;;;8.8;7;;;;;;;;;;;;;
2023/05/13 02:32:52;;;;;;;8.1;6.4;;;;;;;;;;;;;
2023/05/13 02:35:18;;;;;;;8.4;6.4;;;;;;;;;;;;;
2023/05/13 02:37:44;;;;;;;8.5;6.7;;;;;;;;;;;;;
2023/05/13 02:40:12;;;;;;;8.5;6.9;;;;;;;;;;;;;
2023/05/13 02:42:37;;;;;;;8.5;6.9;;;;;;;;;;;;;
2023/05/13 02:45:02;;;;;;;8.7;6.9;;;;;;;;;;;;;
2023/05/13 02:47:27;;;;;;;8.9;7;;;;;;;;;;;;;
2023/05/13 02:49:53;;;;;;;8.3;6.7;;;;;;;;;;;;;
2023/05/13 02:52:18;;;;;;;8.7;7;;;;;;;;;;;;;
2023/05/13 02:54:43;;;;;;;9.1;7;;;;;;;;;;;;;
2023/05/13 02:57:08;;;;;;;9.8;7.5;;;;;;;;;;;;;
2023/05/13 02:59:34;;;;;;;8.2;7.1;;;;;;;;;;;;;
2023/05/13 03:02:13;;;;;;;8.6;7.1;;;;;;;;;;;;;
2023/05/13 03:04:40;;;;;;;8.6;6.8;;;;;;;;;;;;;
2023/05/13 03:07:03;;;;;;;9.3;7;;;;;;;;;;;;;
2023/05/13 03:09:30;;;;;;;8.9;7.4;;;;;;;;;;;;;
2023/05/13 03:11:54;;;;;;;8.2;6.6;;;;;;;;;;;;;
2023/05/13 03:14:19;;;;;;;8.7;6.9;;;;;;;;;;;;;
2023/05/13 03:16:44;;;;;;;9.7;7.6;;;;;;;;;;;;;
2023/05/13 03:19:09;;;;;;;9.9;7.9;;;;;;;;;;;;;
2023/05/13 03:21:34;;;;;;;9.8;7.6;;;;;;;;;;;;;
2023/05/13 03:24:00;;;;;;;10.3;7.7;;;;;;;;;;;;;
2023/05/13 03:26:25;;;;;;;10.5;7.9;;;;;;;;;;;;;
2023/05/13 03:28:49;;;;;;;10;7.8;;;;;;;;;;;;;
2023/05/13 03:31:15;;;;;;;10.2;7.5;;;;;;;;;;;;;
2023/05/13 03:33:40;;;;;;;10.6;7.9;;;;;;;;;;;;;
2023/05/13 03:36:05;;;;;;;10.9;8;;;;;;;;;;;;;
2023/05/13 03:38:30;;;;;;;9.4;7.3;;;;;;;;;;;;;
2023/05/13 03:40:55;;;;;;;8.6;7.3;;;;;;;;;;;;;
2023/05/13 03:43:27;;;;;;;9.8;7.9;;;;;;;;;;;;;
2023/05/13 03:45:53;;;;;;;11;7.7;;;;;;;;;;;;;
2023/05/13 03:48:18;;;;;;;10.9;8.3;;;;;;;;;;;;;
2023/05/13 03:50:43;;;;;;;9.6;7.7;;;;;;;;;;;;;
2023/05/13 03:53:08;;;;;;;9.7;7.3;;;;;;;;;;;;;
2023/05/13 03:55:34;;;;;;;10.4;7.9;;;;;;;;;;;;;
2023/05/13 03:57:59;;;;;;;9.5;6.9;;;;;;;;;;;;;
2023/05/13 04:02:33;;;;;;;9.4;7.3;;;;;;;11.71;92.56152;935.3574;;;;
2023/05/13 04:04:58;;;;;;;11.6;8.3;;;;;;;11.77;92.52734;935.4052;;;;
2023/05/13 04:07:23;;;;;;;10;7.6;;;;;;;11.77;92.63281;935.3892;;;;
2023/05/13 04:09:51;;;;;;;10.3;7.8;;;;;;;11.79;92.4873;935.4494;;;;
2023/05/13 04:12:17;;;;;;;10.6;7.6;;;;;;;11.74;92.86719;935.4539;;;;
2023/05/13 04:14:45;;;;;;;10.9;8.3;;;;;;;11.74;93.07129;935.4953;;;;
2023/05/13 04:17:11;;;;;;;12.1;8.3;;;;;;;11.62;93.13965;935.4539;;;;
2023/05/13 04:19:38;;;;;;;13.7;8.1;;;;;;;11.64;93.4043;935.5176;;;;
2023/05/13 04:22:03;;;;;;;11.5;8.2;;;;;;;11.64;93.16406;935.4817;;;;
2023/05/13 04:24:31;;;;;;;12.1;8.2;;;;;;;11.42;94.58203;935.5075;;;;
2023/05/13 04:26:56;;;;;;;10.4;7.8;;;;;;;11.51;94.38672;935.5674;;;;
2023/05/13 04:29:25;;;;;;;10.4;7.8;;;;;;;11.57;94.34277;935.5778;;;;
2023/05/13 04:31:50;;;;;;;10.4;8.2;;;;;;;11.61;94.38086;935.6273;;;;
2023/05/13 04:34:20;;;;;;;10.9;8;;;;;;;11.67;93.82227;935.6197;;;;
2023/05/13 04:36:45;;;;;;;11.8;8.7;;;;;;;11.68;93.7002;935.6174;;;;
2023/05/13 04:39:11;;;;;;;11.1;8.3;;;;;;;11.69;93.64355;935.6613;;;;
2023/05/13 04:41:35;;;;;;;10.8;8.3;;;;;;;11.69;93.24512;935.6509;;;;
2023/05/13 04:44:05;;;;;;;9.2;7.5;;;;;;;11.45;94.93164;935.6208;;;;
2023/05/13 04:46:27;;;;;;;10.6;7.8;;;;;;;11.38;95.40723;935.692;;;;
2023/05/13 04:48:52;;;;;;;11.1;8.6;;;;;;;11.53;94.8916;935.6982;;;;
2023/05/13 04:51:18;;;;;;;11.1;8.2;;;;;;;11.57;94.5127;935.735;;;;
2023/05/13 04:53:45;;;;;;;10.4;7.8;;;;;;;11.66;94.23242;935.7776;;;;
2023/05/13 04:56:11;;;;;;;10.6;7.9;;;;;;;11.72;93.68555;935.7753;;;;
2023/05/13 04:58:38;;;;;;;9.2;7;;;;;;;11.72;93.42188;935.7283;;;;
2023/05/13 05:01:03;;;;;;;10.7;7.2;;;;;;;11.67;93.46973;935.8128;;;;
2023/05/13 05:03:30;;;;;;;10.2;7.5;;;;;;;11.71;93.43164;935.8318;;;;
2023/05/13 05:05:55;;;;;;;10.2;7.7;;;;;;;11.79;93.08301;935.8809;;;;
2023/05/13 05:08:22;;;;;;;9.4;7.4;;;;;;;11.77;93.27344;935.8184;;;;
2023/05/13 05:10:47;;;;;;;10;6.9;;;;;;;11.86;92.83496;935.8198;;;;
2023/05/13 05:13:13;;;;;;;9.3;7;;;;;;;11.91;92.47852;935.8677;;;;
2023/05/13 05:15:38;;;;;;;9.6;7;;;;;;;11.79;93.03711;935.8865;;;;
2023/05/13 05:18:07;;;;;;;8.8;6.4;;;;;;;11.83;93.0127;935.8861;;;;
2023/05/13 05:20:32;;;;;;;9.4;6.7;;;;;;;11.83;92.73535;935.8622;;;;
2023/05/13 05:22:59;;;;;;;7.9;6.3;;;;;;;11.85;92.64941;935.9531;;;;
2023/05/13 05:25:25;;;;;;;7.8;6.1;;;;;;;11.91;92.38672;935.9572;;;;
2023/05/13 05:27:55;;;;;;;7.8;6.4;;;;;;;11.9;92.37305;935.9427;;;;
2023/05/13 05:30:23;;;;;;;8.9;6;;;;;;;11.9;92.35156;935.8535;;;;
2023/05/13 05:32:48;;;;;;;8.1;5.8;;;;;;;11.8;92.77539;935.9822;;;;
2023/05/13 05:35:21;;;;;;;7.6;6.3;;;;;;;11.69;93.53125;936.0042;;;;
2023/05/13 05:37:52;;;;;;;11.5;6;;;;;;;11.81;93.31543;936.0101;;;;
2023/05/13 05:40:23;;;;;;;6.9;5.6;;;;;;;11.79;93.1748;935.9807;;;;
2023/05/13 05:42:52;;;;;;;9;6.2;;;;;;;11.66;93.68555;936.0631;;;;
2023/05/13 05:45:17;;;;;;;7.5;5.9;;;;;;;11.67;93.91797;936.0815;;;;
2023/05/13 05:47:46;;;;;;;8.6;6.1;;;;;;;11.81;93.77344;936.098;;;;
2023/05/13 05:50:22;;;;;;;7.5;5.6;;;;;;;11.89;93.02441;936.1319;;;;
2023/05/13 05:52:46;;;;;;;7.4;5.4;;;;;;;11.83;92.96484;936.0951;;;;
2023/05/13 05:55:43;;;;;;;6.8;5.4;;;;;;;11.84;92.70508;936.0799;;;;
2023/05/13 05:58:11;;;;;;;7.1;5.5;;;;;;;11.95;92.3252;936.1741;;;;
2023/05/13 06:00:36;;;;;;;6.3;5.1;;;;;;;11.94;92.43945;936.0887;;;;
2023/05/13 06:03:05;;;;;;;5.6;4.6;;;;;;;12.03;91.86328;936.0731;;;;
2023/05/13 06:05:31;;;;;;;6;4.7;;;;;;;12.07;91.63086;936.0756;;;;
2023/05/13 06:07:59;;;;;;;5.6;4.3;;;;;;;12.16;91.36328;936.1378;;;;
2023/05/13 06:10:24;;;;;;;5.9;4.7;;;;;;;12.26;90.89258;936.1404;;;;
2023/05/13 06:12:53;;;;;;;5.5;4.6;;;;;;;12.33;90.53906;936.0901;;;;
2023/05/13 06:15:18;;;;;;;5.8;4.6;;;;;;;12.43;89.97656;936.1445;;;;
2023/05/13 06:17:47;;;;;;;6.2;4.5;;;;;;;12.57;89.46582;936.0956;;;;
2023/05/13 06:20:12;;;;;;;6.6;5.1;;;;;;;12.6;88.53027;936.0779;;;;
2023/05/13 06:22:41;;;;;;;7.8;5;;;;;;;12.65;88.26465;936.1637;;;;
2023/05/13 06:25:06;;;;;;;7;4.9;;;;;;;12.7;88.45898;936.1755;;;;
2023/05/13 06:27:32;;;;;;;6.9;5;;;;;;;12.74;88.41113;936.1602;;;;
2023/05/13 06:29:56;;;;;;;5.8;4.7;;;;;;;12.57;88.78711;936.2019;;;;
2023/05/13 06:32:22;;;;;;;6.5;5;;;;;;;12.64;88.36621;936.1677;;;;
2023/05/13 06:34:48;;;;;;;6.3;4.9;;;;;;;12.53;88.83691;936.1564;;;;
2023/05/13 06:37:15;;;;;;;6.4;4.6;;;;;;;12.58;88.42383;936.2338;;;;
2023/05/13 06:39:40;;;;;;;7.6;4.9;;;;;;;12.3;89.83398;936.1939;;;;
2023/05/13 06:42:19;;;;;;;5.8;5;;;;;;;12.26;90.26074;936.2098;;;;
2023/05/13 06:44:48;;;;;;;6.3;4.8;;;;;;;11.63;94.28418;936.1404;;;;
2023/05/13 06:47:14;;;;;;;7.2;5.3;;;;;;;11.74;94.0459;936.1375;;;;
2023/05/13 06:49:38;;;;;;;8.4;5.7;;;;;;;11.93;93.2168;936.2068;;;;
2023/05/13 06:52:04;;;;;;;7.7;5.7;;;;;;;12.08;92.93848;936.2136;;;;
2023/05/13 06:54:30;;;;;;;7.8;5.6;;;;;;;12.15;92.11914;936.1984;;;;
2023/05/13 06:56:57;;;;;;;8;6.1;;;;;;;11.98;93.22852;936.1838;;;;
2023/05/13 06:59:22;;;;;;;7.8;5.6;;;;;;;12.15;92.65625;936.212;;;;
2023/05/13 07:01:51;;;;;;;7.4;5.4;;;;;;;12.39;91.97461;936.225;;;;
2023/05/13 07:04:16;;;;;;;7.9;5.7;;;;;;;12.59;90.45605;936.2122;;;;
2023/05/13 07:06:42;;;;;;;6.1;5.1;;;;;;;12.69;89.68555;936.2155;;;;
2023/05/13 07:09:08;;;;;;;6.5;5;;;;;;;12.73;89.53223;936.2505;;;;
2023/05/13 07:11:34;;;;;;;6.4;5.2;;;;;;;12.95;88.69434;936.307;;;;
2023/05/13 07:13:59;;;;;;;7.4;5.4;;;;;;;13.15;88.01074;936.2675;;;;
2023/05/13 07:16:27;;;;;;;6.4;4.7;;;;;;;13.27;87.04492;936.298;;;;
2023/05/13 07:18:53;;;;;;;6.5;4.6;;;;;;;13.45;85.46191;936.3239;;;;
2023/05/13 07:21:20;;;;;;;5.2;4.3;;;;;;;13.67;85.05664;936.3463;;;;
2023/05/13 07:23:45;;;;;;;6.1;4.7;;;;;;;13.75;83.49609;936.2825;;;;
2023/05/13 07:26:11;;;;;;;7;4.8;;;;;;;13.54;85.18066;936.3114;;;;
2023/05/13 07:28:36;;;;;;;5.8;4.4;;;;;;;13.8;84.44824;936.3159;;;;
2023/05/13 07:31:03;;;;;;;5.9;4.2;;;;;;;13.98;82.80273;936.3053;;;;
2023/05/13 07:33:28;;;;;;;5.9;4.5;;;;;;;13.73;83.53906;936.3379;;;;
2023/05/13 07:35:54;;;;;;;5.2;4.3;;;;;;;14.08;83.24902;936.2938;;;;
2023/05/13 07:38:19;;;;;;;5.2;4.2;;;;;;;14.47;81.22461;936.2955;;;;
2023/05/13 07:40:49;;;;;;;5.2;4.2;;;;;;;14.88;78.66309;936.2745;;;;
2023/05/13 07:43:22;;;;;;;4.8;4.1;;;;;;;15.23;77.12012;936.3347;;;;
2023/05/13 07:45:42;;;;;;;5;3.9;;;;;;;14.96;77.99512;936.3083;;;;
2023/05/13 07:48:08;;;;;;;5.3;3.9;;;;;;;15.3;76.62402;936.313;;;;
2023/05/13 07:50:35;;;;;;;5.5;4.3;;;;;;;14.9;78.86035;936.2944;;;;
2023/05/13 07:53:00;;;;;;;5.2;3.8;;;;;;;14.9;77.20117;936.2535;;;;
2023/05/13 07:55:27;;;;;;;5.1;4.4;;;;;;;14.7;78.71094;936.3466;;;;
2023/05/13 07:57:52;;;;;;;5.9;4.7;;;;;;;14.04;83.0127;936.3821;;;;
2023/05/13 08:00:21;;;;;;;6.1;4.8;;;;;;;14.08;81.66113;936.3314;;;;
2023/05/13 08:02:51;;;;;;;6.3;4.8;;;;;;;14.11;83.55371;936.3536;;;;
2023/05/13 08:05:16;;;;;;;5.7;4.9;;;;;;;14.41;82.3916;936.305;;;;
2023/05/13 08:07:42;;;;;;;7;5.3;;;;;;;14.51;80.81836;936.3448;;;;
2023/05/13 08:10:07;;;;;;;6.9;4.8;;;;;;;14.7;80.02344;936.3017;;;;
2023/05/13 08:12:34;;;;;;;5;4.3;;;;;;;14.69;80.34668;936.3547;;;;
2023/05/13 08:14:59;;;;;;;7.3;4.6;;;;;;;14.82;78.88184;936.296;;;;
2023/05/13 08:17:27;;;;;;;5.7;4.4;;;;;;;14.86;79.96094;936.322;;;;
2023/05/13 08:19:52;;;;;;;6.1;5;;;;;;;14.57;79.96582;936.3179;;;;
2023/05/13 08:22:18;;;;;;;6.1;4.4;;;;;;;14.53;80.20117;936.315;;;;
2023/05/13 08:24:43;;;;;;;5.7;4.4;;;;;;;14.27;80.67188;936.3655;;;;
2023/05/13 08:27:11;;;;;;;6.3;4.7;;;;;;;14.14;81.56934;936.3397;;;;
2023/05/13 08:29:35;;;;;;;5.7;4.4;;;;;;;14.15;80.73047;936.3452;;;;
2023/05/13 08:32:01;;;;;;;6.1;4.5;;;;;;;14.46;80.22266;936.3397;;;;
2023/05/13 08:34:26;;;;;;;5.1;4.1;;;;;;;14.94;78.47656;936.2435;;;;
2023/05/13 08:36:53;;;;;;;5;4.1;;;;;;;15.43;75.58691;936.3069;;;;
2023/05/13 08:39:18;;;;;;;4.9;4.1;;;;;;;14.94;78.5459;936.2859;;;;
2023/05/13 08:41:44;;;;;;;5;4;;;;;;;14.95;79.38965;936.2906;;;;
2023/05/13 08:44:09;;;;;;;5.5;4;;;;;;;15.24;78.2998;936.2431;;;;
2023/05/13 08:46:38;;;;;;;6;4.4;;;;;;;15.49;76.39453;936.29;;;;
2023/05/13 08:49:06;;;;;;;5.8;4;;;;;;;15.56;76.91211;936.2764;;;;
2023/05/13 08:51:32;;;;;;;5.4;4;;;;;;;16.53;75.33398;936.3265;;;;
2023/05/13 08:53:59;;;;;;;4.3;3.9;;;;;;;17.69;68.9668;936.2764;;;;
2023/05/13 08:56:27;;;;;;;4.7;4;;;;;;;17.68;66.59766;936.3209;;;;
2023/05/13 08:58:51;;;;;;;4.7;3.8;;;;;;;18.18;65.70703;936.2711;;;;
2023/05/13 09:01:17;;;;;;;5;3.9;;;;;;;18.48;64.93848;936.2274;;;;
2023/05/13 09:03:43;;;;;;;4.1;3.5;;;;;;;17.75;66.75781;936.2405;;;;
2023/05/13 09:06:09;;;;;;;4.1;3.4;;;;;;;17.91;67.32813;936.2615;;;;
2023/05/13 09:08:35;;;;;;;4;3.4;;;;;;;17.67;71.09766;936.2516;;;;
2023/05/13 09:11:01;;;;;;;4.1;3.3;;;;;;;18.55;67.22852;936.2338;;;;
2023/05/13 09:13:26;;;;;;;4.6;3.3;;;;;;;19.62;61.73926;936.176;;;;
2023/05/13 09:15:53;;;;;;;4.6;3.3;;;;;;;19.33;63.1416;936.1683;;;;
2023/05/13 09:18:19;;;;;;;4.2;3;;;;;;;19.59;62.6084;936.1898;;;;
2023/05/13 09:20:45;;;;;;;4.5;3;;;;;;;20.99;58.36328;936.2137;;;;
2023/05/13 09:23:10;;;;;;;4;3;;;;;;;21.45;54.34961;936.1981;;;;
2023/05/13 09:25:35;;;;;;;3;2.6;;;;;;;19.55;58.27832;936.1908;;;;
2023/05/13 09:28:01;;;;;;;3.5;2.7;;;;;;;18.05;63.73633;936.1646;;;;
2023/05/13 09:30:26;;;;;;;4.4;2.6;;;;;;;17.72;67.20508;936.1606;;;;
2023/05/13 09:33:29;;;;;;;3.1;2.7;;;;;;;18.14;65.0625;936.1165;;;;
2023/05/13 09:36:00;;;;;;;2.9;2.5;;;;;;;17.86;65.56836;936.1763;;;;
2023/05/13 09:38:25;;;;;;;3.2;2.8;;;;;;;18.17;63.99902;936.1286;;;;
2023/05/13 09:40:50;;;;;;;2.9;2.5;;;;;;;16.88;67.45898;936.1605;;;;
2023/05/13 09:43:20;;;;;;;2.5;2.3;;;;;;;17.22;67.59277;936.1456;;;;
2023/05/13 09:45:44;;;;;;;2.7;2.4;;;;;;;17.12;68.93555;936.1289;;;;
2023/05/13 09:48:13;;;;;;;2.3;2;;;;;;;17.35;65.67676;936.103;;;;
2023/05/13 09:50:36;;;;;;;2.6;2.3;;;;;;;17.45;65.93652;936.1172;;;;
2023/05/13 09:53:02;;;;;;;2.3;2.1;;;;;;;16.91;68.28711;936.1077;;;;
2023/05/13 09:55:31;;;;;;;2.6;2.1;;;;;;;16.86;68.47559;936.0974;;;;
2023/05/13 09:57:56;;;;;;;2.8;2.5;;;;;;;16.91;68.03223;936.0908;;;;
2023/05/13 10:00:21;;;;;;;2.5;2.1;;;;;;;17.14;67.10547;936.0988;;;;
2023/05/13 10:02:46;;;;;;;3.5;2.5;;;;;;;16.95;67.23926;936.111;;;;
2023/05/13 10:05:16;;;;;;;2.5;2.2;;;;;;;17.38;67.46875;936.0572;;;;
2023/05/13 10:07:42;;;;;;;2.8;2.5;;;;;;;17.38;65.87988;936.1144;;;;
2023/05/13 10:10:12;;;;;;;3.4;2.6;;;;;;;17.6;67.03613;936.095;;;;
2023/05/13 10:12:43;;;;;;;2.8;2.5;;;;;;;18.52;64.53809;936.1465;;;;
2023/05/13 10:15:08;;;;;;;3.1;2.8;;;;;;;18.47;64.41504;936.1937;;;;
2023/05/13 10:17:40;;;;;;;3.1;2.8;;;;;;;18.3;65.28418;936.229;;;;
2023/05/13 10:20:09;;;;;;;4.3;3.5;;;;;;;17.27;68.77051;936.2527;;;;
2023/05/13 10:22:39;;;;;;;3.7;3.3;;;;;;;17.84;67.33008;936.2751;;;;
2023/05/13 10:25:13;;;;;;;3;2.7;;;;;;;18.38;63.99414;936.1884;;;;
2023/05/13 10:27:41;;;;;;;4.1;3.3;;;;;;;17.92;67.56152;936.0865;;;;
2023/05/13 10:30:09;;;;;;;3.5;2.9;;;;;;;18.11;65.79004;936.147;;;;
2023/05/13 10:32:31;;;;;;;4.7;3.6;;;;;;;17.58;68.72949;936.1597;;;;
2023/05/13 10:34:59;;;;;;;4.6;3.6;;;;;;;18.19;66.48926;936.1644;;;;
2023/05/13 10:37:27;;;;;;;3.6;3.2;;;;;;;18.09;68.66895;936.1942;;;;
2023/05/13 10:39:52;;;;;;;5.3;3.7;;;;;;;18.67;67.43262;936.1887;;;;
2023/05/13 10:42:20;;;;;;;4.1;3.3;;;;;;;18.17;66.05566;936.1922;;;;
2023/05/13 10:44:46;;;;;;;4.2;3.5;;;;;;;17.61;68.61719;936.1985;;;;
2023/05/13 10:47:11;;;;;;;4.4;3.3;;;;;;;17.48;69.02539;936.2432;;;;
2023/05/13 10:49:38;;;;;;;3.5;3.2;;;;;;;16.77;70.97461;936.1976;;;;
2023/05/13 10:52:02;;;;;;;3.6;2.5;;;;;;;16.37;72.79785;936.1439;;;;
2023/05/13 10:54:27;;;;;;;2.9;2.4;;;;;;;16.5;71.36035;936.1646;;;;
2023/05/13 10:56:54;;;;;;;2.5;2.3;;;;;;;16.35;72.05273;936.1973;;;;
2023/05/13 10:59:19;;;;;;;2.1;1.9;;;;;;;16.04;72.08203;936.1834;;;;
2023/05/13 11:01:49;;;;;;;2.4;2.1;;;;;;;15.4;73.83691;936.1433;;;;
2023/05/13 11:04:22;;;;;;;2.2;1.9;;;;;;;15.53;73.33984;936.1948;;;;
2023/05/13 11:06:47;;;;;;;2.3;2;;;;;;;15.26;74.08984;936.1538;;;;
2023/05/13 11:09:12;;;;;;;2.3;1.9;;;;;;;15.36;74.42969;936.2553;;;;
2023/05/13 11:11:37;;;;;;;2.5;2.3;;;;;;;15.31;74.22559;936.1387;;;;
2023/05/13 11:14:02;;;;;;;2.7;2.3;;;;;;;15.36;74.15234;936.2392;;;;
2023/05/13 11:16:27;;;;;;;2.4;2.1;;;;;;;15.22;75.05273;936.2827;;;;
2023/05/13 11:18:55;;;;;;;3;2.6;;;;;;;15.11;75.51758;936.3478;;;;
2023/05/13 11:21:20;;;;;;;3.3;2.5;;;;;;;14.93;78.08301;936.3638;;;;
2023/05/13 11:23:45;;;;;;;3.9;2.8;;;;;;;15.04;78.5752;936.4039;;;;
2023/05/13 11:26:10;;;;;;;3.1;2.7;;;;;;;15.08;77.7627;936.3867;;;;
2023/05/13 11:28:35;;;;;;;3.2;2.9;;;;;;;14.44;80.4248;936.4792;;;;
2023/05/13 11:31:04;;;;;;;3.3;2.9;;;;;;;14.34;82.33008;936.5043;;;;
2023/05/13 11:33:31;;;;;;;3.4;3;;;;;;;14.75;79.13477;936.4913;;;;
2023/05/13 11:35:56;;;;;;;2.9;2.5;;;;;;;14.84;78.43555;936.4938;;;;
2023/05/13 11:38:23;;;;;;;3;2.6;;;;;;;14.91;77.94141;936.5485;;;;
2023/05/13 11:40:48;;;;;;;2.4;2.2;;;;;;;15.11;77.56152;936.5427;;;;
2023/05/13 11:43:13;;;;;;;2.4;2.1;;;;;;;15.21;76.4248;936.5937;;;;
2023/05/13 11:46:05;;;;;;;2.2;2;;;;;;;15.28;77.9707;936.6117;;;;
2023/05/13 11:48:32;;;;;;;2.7;1.9;;;;;;;15.45;75.78418;936.6124;;;;
2023/05/13 11:50:55;;;;;;;2.8;2.3;;;;;;;15.37;75.56445;936.6291;;;;
2023/05/13 11:53:21;;;;;;;2.4;2.1;;;;;;;15.25;75.93457;936.6217;;;;
2023/05/13 11:55:46;;;;;;;2.2;2;;;;;;;15.33;76.44531;936.6271;;;;
2023/05/13 11:58:12;;;;;;;2.1;1.9;;;;;;;15.46;76.09766;936.6636;;;;
2023/05/13 12:00:37;;;;;;;1.6;1.5;;;;;;;15.13;76.60645;936.6082;;;;
2023/05/13 12:03:07;;;;;;;1.7;1.6;;;;;;;15.16;77.06348;936.6649;;;;
2023/05/13 12:05:32;;;;;;;2.1;1.8;;;;;;;15.25;77.37793;936.742;;;;
2023/05/13 12:07:58;;;;;;;3.2;2;;;;;;;14.9;80.36035;936.8083;;;;
2023/05/13 12:10:24;;;;;;;2.1;1.9;;;;;;;14.75;79.9873;936.8102;;;;
2023/05/13 12:12:49;;;;;;;2.2;2;;;;;;;14.61;81.35742;936.8495;;;;
2023/05/13 12:15:15;;;;;;;3.4;2.9;;;;;;;14.4;83.56348;936.8803;;;;
2023/05/13 12:17:40;;;;;;;3.5;2.8;;;;;;;14.56;82.29199;936.8644;;;;
2023/05/13 12:20:05;;;;;;;3.6;3.3;;;;;;;14.56;83.17969;936.9302;;;;
2023/05/13 12:22:33;;;;;;;5.4;3.5;;;;;;;14.37;84.62891;936.9366;;;;
2023/05/13 12:25:02;;;;;;;3.9;3.3;;;;;;;14.4;85.88086;936.9324;;;;
2023/05/13 12:27:26;;;;;;;3.8;3.1;;;;;;;14.59;84.76367;936.8698;;;;
2023/05/13 12:29:51;;;;;;;3.6;2.8;;;;;;;14.84;83.93652;936.9508;;;;
2023/05/13 12:32:16;;;;;;;3.5;3;;;;;;;14.51;83.97559;936.9417;;;;
2023/05/13 12:34:44;;;;;;;3.1;2.8;;;;;;;14.73;84.39941;936.9138;;;;
2023/05/13 12:37:09;;;;;;;3.6;2.9;;;;;;;14.82;83.34473;936.9005;;;;
2023/05/13 12:39:34;;;;;;;4.3;3.2;;;;;;;14.73;84.16895;936.8585;;;;
2023/05/13 12:41:59;;;;;;;4.2;3.6;;;;;;;14.69;84.9668;936.87;;;;
2023/05/13 12:44:29;;;;;;;3.1;2.8;;;;;;;14.25;86.14941;936.9551;;;;
2023/05/13 12:46:58;;;;;;;4;3.6;;;;;;;14.17;87.62988;936.9833;;;;
2023/05/13 12:49:22;;;;;;;4;3.3;;;;;;;14.43;86.20801;936.9573;;;;
2023/05/13 12:51:47;;;;;;;4.6;3.4;;;;;;;14.79;85.41309;936.8923;;;;
2023/05/13 12:54:12;;;;;;;4.4;3.5;;;;;;;14.97;84.70996;936.9584;;;;
2023/05/13 12:56:39;;;;;;;3.9;3.1;;;;;;;14.97;82.95703;936.9311;;;;
2023/05/13 12:59:03;;;;;;;3.2;2.7;;;;;;;15.03;82.13965;936.9564;;;;
2023/05/13 13:01:32;;;;;;;4.2;3.3;;;;;;;14.94;82.7207;937.0067;;;;
2023/05/13 13:03:57;;;;;;;3.4;3.1;;;;;;;14.94;82.79004;937.0212;;;;
2023/05/13 13:06:24;;;;;;;3.3;3;;;;;;;14.8;83.92969;936.9997;;;;
2023/05/13 13:08:49;;;;;;;3.4;2.8;;;;;;;14.69;83.56055;937.0455;;;;
2023/05/13 13:11:17;;;;;;;2.7;2.5;;;;;;;14.91;82.7041;937.0623;;;;
2023/05/13 13:13:40;;;;;;;3.2;2.9;;;;;;;14.91;83.02734;937.092;;;;
2023/05/13 13:16:06;;;;;;;3.5;3.2;;;;;;;15.09;83.64844;937.1372;;;;
2023/05/13 13:18:31;;;;;;;3.7;3.1;;;;;;;15.05;82.78809;937.055;;;;
2023/05/13 13:20:57;;;;;;;3.8;3;;;;;;;15.18;82.4082;937.0641;;;;
2023/05/13 13:23:22;;;;;;;3.5;3;;;;;;;15.17;82.69434;937.073;;;;
2023/05/13 13:25:49;;;;;;;3.7;3.3;;;;;;;14.87;82.48633;937.0524;;;;
2023/05/13 13:28:14;;;;;;;3.3;3;;;;;;;14.69;83.18066;937.0126;;;;
2023/05/13 13:30:45;;;;;;;3.1;2.8;;;;;;;14.12;86.41211;937.1069;;;;
2023/05/13 13:33:07;;;;;;;4.5;3.9;;;;;;;14.3;87.60938;936.95;;;;
2023/05/13 13:35:33;;;;;;;5.2;3.9;;;;;;;14.59;87.20898;937.0244;;;;
2023/05/13 13:37:58;;;;;;;5.4;4.2;;;;;;;14.31;86.82813;937.0308;;;;
2023/05/13 13:40:24;;;;;;;4.6;3.8;;;;;;;13.91;88.48535;937.0447;;;;
2023/05/13 13:42:49;;;;;;;5;4;;;;;;;14.25;87.54297;937.0016;;;;
2023/05/13 13:45:17;;;;;;;5.1;4.1;;;;;;;14.32;86.47266;936.9098;;;;
2023/05/13 13:47:43;;;;;;;5.1;4.1;;;;;;;14.39;85.89063;936.9476;;;;
2023/05/13 13:50:14;;;;;;;6.5;4.9;;;;;;;14.4;86.84668;936.9131;;;;
2023/05/13 13:52:43;;;;;;;5.9;4.7;;;;;;;14.09;88.7666;936.967;;;;
2023/05/13 13:55:10;;;;;;;5.6;4.4;;;;;;;14.39;86.78711;936.8804;;;;
2023/05/13 13:57:33;;;;;;;5.7;4.4;;;;;;;14.26;87.21094;936.8781;;;;
2023/05/13 14:00:00;;;;;;;5.4;4.5;;;;;;;14.43;85.77051;936.7781;;;;
2023/05/13 14:02:27;;;;;;;5.6;4.8;;;;;;;14.66;85.78027;936.799;;;;
2023/05/13 14:04:55;;;;;;;4.6;4.1;;;;;;;15.22;84.66699;936.8201;;;;
2023/05/13 14:07:20;;;;;;;5.2;4.3;;;;;;;15.46;83.01465;936.7278;;;;
2023/05/13 14:09:49;;;;;;;5.2;4.4;;;;;;;15.63;81.71875;936.7946;;;;
2023/05/13 14:12:14;;;;;;;4.9;4.2;;;;;;;15.72;82.16504;936.7637;;;;
2023/05/13 14:14:39;;;;;;;4.7;4;;;;;;;15.92;84.43164;936.7221;;;;
2023/05/13 14:17:05;;;;;;;4.3;3.9;;;;;;;16.17;80.60547;936.787;;;;
2023/05/13 14:19:30;;;;;;;4.4;3.6;;;;;;;16.45;77.50879;936.7811;;;;
2023/05/13 14:21:56;;;;;;;4.6;3.8;;;;;;;16.26;77.30371;936.7612;;;;
2023/05/13 14:24:21;;;;;;;5.3;4.1;;;;;;;16.05;77.66992;936.784;;;;
2023/05/13 14:26:49;;;;;;;4;3.6;;;;;;;16.11;77.87793;936.665;;;;
2023/05/13 14:29:14;;;;;;;4.4;3.9;;;;;;;16.08;77.66309;936.6671;;;;
2023/05/13 14:31:40;;;;;;;4;3.6;;;;;;;15.92;78.17773;936.7285;;;;
2023/05/13 14:34:05;;;;;;;5.3;3.6;;;;;;;16.06;77.02441;936.6795;;;;
2023/05/13 14:36:32;;;;;;;5.2;4;;;;;;;15.86;77.83301;936.678;;;;
2023/05/13 14:38:57;;;;;;;4.6;4;;;;;;;15.69;77.02734;936.6437;;;;
2023/05/13 14:41:25;;;;;;;4.6;3.9;;;;;;;15.32;78.70605;936.5983;;;;
2023/05/13 14:43:50;;;;;;;4.5;3.6;;;;;;;14.96;79.88672;936.6594;;;;
2023/05/13 14:46:17;;;;;;;4;3.5;;;;;;;15.11;80.30762;936.6324;;;;
2023/05/13 14:48:42;;;;;;;5.2;3.6;;;;;;;15.03;79.27734;936.574;;;;
2023/05/13 14:51:10;;;;;;;4.6;4;;;;;;;15.52;78.77832;936.6669;;;;
2023/05/13 14:53:33;;;;;;;4.7;3.7;;;;;;;15.43;79.10742;936.6567;;;;
2023/05/13 14:56:03;;;;;;;4.6;3.8;;;;;;;15.71;78.20996;936.625;;;;
2023/05/13 14:58:28;;;;;;;4.9;3.6;;;;;;;15.71;78.8916;936.6403;;;;
2023/05/13 15:00:55;;;;;;;5;4.2;;;;;;;15.93;77.45117;936.6674;;;;
2023/05/13 15:03:20;;;;;;;3.8;3.3;;;;;;;16.15;76.20703;936.6243;;;;
2023/05/13 15:05:48;;;;;;;4.8;3.8;;;;;;;15.64;77.8291;936.6475;;;;
2023/05/13 15:08:12;;;;;;;4.8;3.6;;;;;;;15.59;78.16406;936.6262;;;;
2023/05/13 15:10:38;;;;;;;4.8;4;;;;;;;15.74;76.83008;936.6719;;;;
2023/05/13 15:13:04;;;;;;;3.9;3.5;;;;;;;15.71;77.58594;936.6089;;;;
2023/05/13 15:15:32;;;;;;;4.3;3.4;;;;;;;15.67;76.75977;936.6311;;;;
2023/05/13 15:17:56;;;;;;;4.4;3.2;;;;;;;15.48;78.19336;936.6448;;;;
2023/05/13 15:20:27;;;;;;;4.2;3.5;;;;;;;15.76;75.44531;936.5778;;;;
2023/05/13 15:22:50;;;;;;;4.1;3.4;;;;;;;16;73.53418;936.6495;;;;
2023/05/13 15:25:18;;;;;;;3.5;3.1;;;;;;;15.85;75.6123;936.6925;;;;
2023/05/13 15:27:51;;;;;;;4.6;3.6;;;;;;;15.23;76.98242;936.7189;;;;
2023/05/13 15:30:22;;;;;;;4;3.6;;;;;;;14.71;80.24609;936.7473;;;;
2023/05/13 15:32:53;;;;;;;4.3;3.8;;;;;;;14.18;82.18457;936.715;;;;
2023/05/13 15:35:22;;;;;;;4.7;4.1;;;;;;;13.99;82.77148;936.8153;;;;